Macks Creek, Missouri
Current Conditions -  °F | °C
As of 12:15 PM on Monday 24 Nov 2014 (Local Time) from KH21 Reporting Station
Overcast Overcast  
Wind Chill: 32°   Ceiling: 4100
Heat Index: 41°   Visibility: 10mi
Dew Point: 28°   Wind: 18mph
Humidity: 61%   Direction: 260°W
Pressure: 29.76"   Gusts: 32mph
Location:  37.97°N, 92.97°W
Report Text: KH21 241815Z AUTO 26016G28KT 10SM OVC041 05/M02 A2976 RMK AO2
Loading
Personal Weather Stations






























Interactive Weather Map New forecast layout! Learn more

10-Day Weather Forecast

Advertisements
Track Severe Weather on mobile